Weather at Detroit Metropolitan Wayne County Airport

Public forecast

Using degrees Fahrenheit for public forecast. Weather courtesy of forecast.io.

Current aviation weather report (METAR) for Detroit Metropolitan Wayne County Airport

Retrieved 2021/03/08 06:53 UTC (2 hours ago):

KDTW 080653Z 00000KT 7SM BKN065 M02/M06 A3041 RMK AO2 SLP305 T10221056

Aviation forecast (TAF) for Detroit Metropolitan Wayne County Airport

Retrieved 2021/03/08 06:22 UTC (2 hours ago):

TAF KDTW 080520Z 0806/0912 18006KT P6SM SCT250 FM081400 21014G20KT P6SM BKN100 FM082000 22013KT P6SM BKN070 FM090000 24008KT P6SM SCT070 BKN150 FM090600 VRB03KT P6SM SCT150